createdAt,value
2022-11-29T00:00:25.797Z,27.80
2022-11-29T00:02:53.447Z,30.52
2022-11-29T00:05:26.770Z,30.08
2022-11-29T00:07:53.676Z,25.95
2022-11-29T00:10:26.856Z,22.67
2022-11-29T00:12:54.926Z,22.17
2022-11-29T00:15:21.724Z,22.35
2022-11-29T00:17:54.844Z,20.00
2022-11-29T00:20:22.961Z,20.42
2022-11-29T00:22:56.909Z,19.35
2022-11-29T00:25:23.944Z,16.83
2022-11-29T00:27:57.858Z,16.35
2022-11-29T00:30:24.826Z,15.77
2022-11-29T00:32:57.885Z,17.27
2022-11-29T00:35:24.739Z,17.02
2022-11-29T00:37:51.514Z,15.05
2022-11-29T00:40:25.044Z,16.40
2022-11-29T00:42:58.857Z,15.32
2022-11-29T00:45:25.759Z,17.25
2022-11-29T00:47:58.908Z,16.17
2022-11-29T00:50:25.820Z,13.48
2022-11-29T00:52:59.111Z,14.90
2022-11-29T00:55:25.999Z,14.30
2022-11-29T00:57:58.892Z,13.35
2022-11-29T01:00:25.819Z,14.10
2022-11-29T01:02:52.763Z,16.50
2022-11-29T01:05:25.879Z,18.33
2022-11-29T01:08:02.783Z,16.65
2022-11-29T01:10:35.898Z,15.57
2022-11-29T01:13:02.799Z,20.50
2022-11-29T01:15:35.982Z,20.35
2022-11-29T01:18:02.891Z,21.52
2022-11-29T01:20:35.992Z,21.70
2022-11-29T01:23:02.800Z,20.42
2022-11-29T01:25:35.868Z,16.55
2022-11-29T01:28:02.741Z,17.58
2022-11-29T01:30:35.941Z,16.98
2022-11-29T01:33:02.691Z,14.27
2022-11-29T01:35:35.916Z,15.00
2022-11-29T01:38:02.894Z,17.38
2022-11-29T01:40:35.959Z,16.13
2022-11-29T01:43:02.761Z,14.35
2022-11-29T01:45:44.013Z,14.93
2022-11-29T01:48:14.030Z,20.63
2022-11-29T01:50:42.637Z,17.45
2022-11-29T01:53:18.949Z,24.42
2022-11-29T01:55:59.037Z,19.67
2022-11-29T01:58:26.247Z,18.83
2022-11-29T02:00:59.991Z,25.90
2022-11-29T02:03:27.174Z,26.63
2022-11-29T02:05:55.549Z,26.27
2022-11-29T02:08:36.067Z,27.10
2022-11-29T02:11:37.972Z,27.13
2022-11-29T02:14:52.048Z,28.05
2022-11-29T02:17:50.947Z,27.75
2022-11-29T02:20:36.418Z,24.48
2022-11-29T02:23:25.073Z,28.08
2022-11-29T02:25:57.659Z,25.60
2022-11-29T02:28:54.995Z,23.73
2022-11-29T02:32:02.187Z,21.08
2022-11-29T02:35:00.002Z,20.27
2022-11-29T02:37:55.101Z,19.02
2022-11-29T02:40:50.218Z,15.25
2022-11-29T02:43:51.050Z,15.50
2022-11-29T02:46:27.755Z,16.88
2022-11-29T02:49:33.047Z,15.27
2022-11-29T02:52:06.990Z,20.15
2022-11-29T02:55:06.035Z,22.45
2022-11-29T02:58:03.239Z,19.08
2022-11-29T03:00:39.070Z,18.70
2022-11-29T03:03:19.250Z,23.15
2022-11-29T03:06:20.079Z,25.13
2022-11-29T03:08:59.289Z,25.05
2022-11-29T03:11:51.124Z,26.05
2022-11-29T03:14:33.070Z,28.75
2022-11-29T03:17:21.519Z,32.00
2022-11-29T03:20:04.162Z,29.23
2022-11-29T03:22:39.102Z,25.55
2022-11-29T03:25:15.110Z,23.75
2022-11-29T03:27:50.749Z,21.73
2022-11-29T03:30:25.160Z,24.10
2022-11-29T03:33:17.017Z,40.40
2022-11-29T03:35:58.069Z,33.47
2022-11-29T03:38:52.726Z,34.13
2022-11-29T03:41:35.164Z,29.20
2022-11-29T03:44:32.204Z,29.30
2022-11-29T03:47:05.614Z,30.90
2022-11-29T03:49:56.172Z,35.10
2022-11-29T03:52:56.166Z,33.58
2022-11-29T03:55:39.180Z,27.40
2022-11-29T03:58:14.781Z,29.42
2022-11-29T04:00:54.331Z,29.00
2022-11-29T04:03:32.190Z,25.48
2022-11-29T04:06:36.233Z,23.48
2022-11-29T04:09:09.124Z,19.40
2022-11-29T04:12:20.480Z,18.58
2022-11-29T04:15:15.751Z,19.95
2022-11-29T04:18:14.179Z,17.27
2022-11-29T04:20:59.578Z,18.90
2022-11-29T04:23:36.169Z,20.45
2022-11-29T04:26:35.083Z,26.20
2022-11-29T04:29:33.286Z,28.73
2022-11-29T04:32:20.442Z,27.70
2022-11-29T04:35:15.193Z,24.25
2022-11-29T04:38:15.310Z,24.88
2022-11-29T04:41:07.234Z,25.27
2022-11-29T04:43:39.866Z,31.58
2022-11-29T04:46:38.305Z,30.23
2022-11-29T04:49:29.394Z,32.75
2022-11-29T04:52:27.262Z,25.80
2022-11-29T04:55:36.578Z,27.15
2022-11-29T04:58:23.308Z,25.40
2022-11-29T05:01:06.904Z,21.52
2022-11-29T05:04:09.307Z,20.52
2022-11-29T05:06:50.689Z,21.10
2022-11-29T05:09:56.320Z,24.70
2022-11-29T05:13:06.283Z,33.00
2022-11-29T05:16:05.017Z,28.67
2022-11-29T05:19:15.283Z,24.25
2022-11-29T05:22:24.368Z,22.42
2022-11-29T05:25:23.310Z,21.08
2022-11-29T05:28:10.250Z,24.20
2022-11-29T05:31:04.306Z,21.20
2022-11-29T05:33:52.325Z,30.75
2022-11-29T05:36:56.256Z,29.48
2022-11-29T05:39:55.439Z,23.52
2022-11-29T05:43:03.957Z,21.42
2022-11-29T05:45:44.282Z,24.95
2022-11-29T05:48:52.325Z,24.20
2022-11-29T05:51:41.239Z,22.02
2022-11-29T05:54:36.342Z,22.50
2022-11-29T05:57:38.481Z,21.48
2022-11-29T06:00:13.350Z,19.83
2022-11-29T06:02:46.665Z,21.52
2022-11-29T06:05:30.374Z,22.08
2022-11-29T06:08:16.316Z,18.38
2022-11-29T06:11:22.330Z,17.65
2022-11-29T06:14:05.513Z,15.77
2022-11-29T06:17:03.483Z,18.10
2022-11-29T06:20:16.409Z,17.42
2022-11-29T06:23:24.222Z,22.02
2022-11-29T06:26:15.379Z,20.75
2022-11-29T06:29:27.594Z,24.45
2022-11-29T06:32:27.469Z,21.58
2022-11-29T06:35:09.486Z,23.17
2022-11-29T06:37:51.412Z,23.83
2022-11-29T06:40:18.309Z,24.92
2022-11-29T06:42:55.425Z,30.77
2022-11-29T06:45:22.691Z,30.75
2022-11-29T06:48:11.403Z,32.97
2022-11-29T06:51:06.443Z,29.30
2022-11-29T06:53:50.442Z,26.73
2022-11-29T06:56:17.219Z,37.38
2022-11-29T06:59:32.436Z,29.83
2022-11-29T07:02:19.692Z,27.73
2022-11-29T07:05:19.455Z,27.25
2022-11-29T07:07:53.457Z,27.75
2022-11-29T07:10:27.621Z,36.13
2022-11-29T07:13:01.455Z,25.42
2022-11-29T07:15:28.896Z,22.75
2022-11-29T07:18:11.489Z,24.38
2022-11-29T07:24:18.500Z,24.23
2022-11-29T07:26:59.740Z,25.08
2022-11-29T07:29:42.486Z,24.73
2022-11-29T07:32:24.488Z,29.38
2022-11-29T07:35:03.504Z,24.13
2022-11-29T07:37:46.485Z,25.35
2022-11-29T07:40:23.858Z,24.40
2022-11-29T07:43:27.498Z,27.48
2022-11-29T07:45:55.868Z,22.45
2022-11-29T07:48:29.485Z,18.60
2022-11-29T07:51:03.528Z,17.50
2022-11-29T07:53:37.515Z,19.40
2022-11-29T07:56:04.587Z,21.30
2022-11-29T07:58:37.562Z,19.05
2022-11-29T08:01:04.448Z,17.55
2022-11-29T08:03:39.568Z,15.52
2022-11-29T08:06:06.551Z,15.50
2022-11-29T08:08:43.975Z,14.65
2022-11-29T08:11:19.523Z,18.02
2022-11-29T08:13:46.381Z,18.13
2022-11-29T08:16:24.649Z,17.92
2022-11-29T08:18:54.064Z,15.82
2022-11-29T08:21:27.543Z,14.05
2022-11-29T08:24:00.554Z,12.50
2022-11-29T08:26:31.676Z,12.13
2022-11-29T08:28:59.023Z,12.07
2022-11-29T08:31:32.650Z,10.82
2022-11-29T08:33:59.518Z,13.52
2022-11-29T08:36:32.616Z,11.65
2022-11-29T08:39:08.661Z,11.07
2022-11-29T08:41:42.572Z,13.80
2022-11-29T08:44:15.609Z,11.73
2022-11-29T08:47:01.060Z,11.40
2022-11-29T08:49:34.651Z,12.30
2022-11-29T08:52:26.619Z,15.63
2022-11-29T08:54:55.624Z,13.20
2022-11-29T08:57:39.935Z,16.25
2022-11-29T09:00:14.618Z,14.32
2022-11-29T09:02:41.640Z,13.35
2022-11-29T09:05:15.668Z,10.82
2022-11-29T09:07:55.701Z,10.15
2022-11-29T09:10:28.958Z,8.20
2022-11-29T09:13:02.658Z,10.63
2022-11-29T09:15:35.677Z,17.88
2022-11-29T09:18:04.315Z,14.95
2022-11-29T09:20:37.728Z,17.98
2022-11-29T09:23:05.020Z,14.15
2022-11-29T09:25:38.697Z,14.75
2022-11-29T09:28:05.791Z,14.13
2022-11-29T09:30:40.687Z,12.73
2022-11-29T09:33:07.482Z,15.70
2022-11-29T09:35:41.769Z,15.23
2022-11-29T09:38:12.001Z,22.35
2022-11-29T09:40:59.695Z,16.35
2022-11-29T09:43:35.711Z,15.90
2022-11-29T09:46:23.229Z,15.88
2022-11-29T09:49:28.726Z,17.52
2022-11-29T09:52:08.731Z,16.77
2022-11-29T09:55:02.828Z,15.65
2022-11-29T09:57:37.716Z,25.85
2022-11-29T10:00:14.007Z,22.02
2022-11-29T10:02:53.792Z,28.55
2022-11-29T10:05:51.886Z,24.30
2022-11-29T10:08:48.769Z,20.15
2022-11-29T10:11:43.616Z,19.92
2022-11-29T10:14:27.848Z,21.63
2022-11-29T10:17:04.815Z,21.88
2022-11-29T10:19:47.793Z,22.63
2022-11-29T10:22:22.477Z,19.15
2022-11-29T10:25:01.839Z,23.33
2022-11-29T10:27:36.814Z,21.77
2022-11-29T10:30:12.877Z,18.13
2022-11-29T10:32:41.054Z,17.35
2022-11-29T10:35:25.794Z,15.82
2022-11-29T10:40:56.092Z,17.17
2022-11-29T10:43:31.762Z,26.45
2022-11-29T10:45:59.060Z,20.73
2022-11-29T10:48:31.721Z,16.08
2022-11-29T10:51:05.819Z,16.05
2022-11-29T10:53:37.064Z,17.38
2022-11-29T10:56:30.808Z,16.35
2022-11-29T10:59:05.094Z,13.52
2022-11-29T11:01:43.831Z,13.18
2022-11-29T11:04:26.823Z,10.45
2022-11-29T11:07:02.833Z,9.98
2022-11-29T11:09:53.297Z,10.45
2022-11-29T11:12:29.862Z,12.23
2022-11-29T11:15:29.853Z,7.68
2022-11-29T11:18:11.794Z,7.95
2022-11-29T11:20:42.300Z,14.45
2022-11-29T11:23:38.700Z,9.82
2022-11-29T11:26:15.215Z,7.82
2022-11-29T11:28:56.851Z,8.48
2022-11-29T11:31:42.894Z,8.30
2022-11-29T11:34:29.924Z,14.00
2022-11-29T11:37:21.900Z,22.08
2022-11-29T11:39:51.833Z,19.88
2022-11-29T11:42:45.884Z,22.05
2022-11-29T11:45:13.223Z,28.33
2022-11-29T11:47:52.875Z,23.48
2022-11-29T11:50:32.727Z,23.45
2022-11-29T11:53:13.904Z,25.50
2022-11-29T11:55:43.875Z,21.98
2022-11-29T11:58:20.973Z,24.08
2022-11-29T12:01:08.647Z,21.80
2022-11-29T12:04:20.894Z,19.25
2022-11-29T12:07:06.932Z,19.67
2022-11-29T12:09:44.965Z,25.90
2022-11-29T12:12:28.002Z,23.33
2022-11-29T12:15:05.931Z,24.73
2022-11-29T12:18:04.319Z,25.70
2022-11-29T12:21:01.923Z,22.70
2022-11-29T12:23:49.243Z,21.90
2022-11-29T12:27:03.412Z,23.70
2022-11-29T12:29:41.947Z,26.85
2022-11-29T12:32:22.146Z,20.95
2022-11-29T12:35:00.960Z,23.60
2022-11-29T12:37:42.750Z,21.27
2022-11-29T12:40:43.006Z,18.47
2022-11-29T12:43:31.948Z,18.92
2022-11-29T12:46:23.011Z,19.45
2022-11-29T12:49:14.670Z,24.92
2022-11-29T12:51:50.977Z,28.77
2022-11-29T12:55:06.935Z,30.90
2022-11-29T12:57:51.859Z,28.75
2022-11-29T13:00:27.036Z,24.08
2022-11-29T13:03:11.666Z,24.88
2022-11-29T13:06:09.008Z,26.27
2022-11-29T13:09:01.012Z,25.90
2022-11-29T13:11:28.441Z,33.30
2022-11-29T13:14:44.023Z,26.80
2022-11-29T13:17:46.172Z,27.45
2022-11-29T13:20:50.670Z,25.58
2022-11-29T13:23:45.707Z,27.10
2022-11-29T13:26:16.583Z,23.17
2022-11-29T13:28:53.068Z,23.70
2022-11-29T13:31:22.901Z,18.58
2022-11-29T13:34:26.046Z,20.60
2022-11-29T13:37:21.092Z,21.42
2022-11-29T13:40:13.036Z,20.65
2022-11-29T13:43:04.178Z,25.45
2022-11-29T13:46:12.100Z,25.92
2022-11-29T13:48:50.480Z,26.63
2022-11-29T13:51:35.085Z,25.67
2022-11-29T13:54:26.457Z,26.73
2022-11-29T13:57:13.268Z,23.52
2022-11-29T13:59:47.146Z,24.85
2022-11-29T14:02:35.153Z,25.73
2022-11-29T14:05:02.221Z,20.98
2022-11-29T14:07:36.209Z,21.60
2022-11-29T14:10:09.615Z,16.58
2022-11-29T14:12:47.111Z,17.45
2022-11-29T14:15:36.421Z,24.40
2022-11-29T14:18:15.197Z,21.00
2022-11-29T14:20:53.919Z,19.55
2022-11-29T14:23:56.150Z,23.33
2022-11-29T14:26:33.178Z,25.38
2022-11-29T14:29:00.223Z,30.38
2022-11-29T14:32:00.114Z,30.98
2022-11-29T14:34:32.915Z,30.65
2022-11-29T14:37:21.139Z,32.75
2022-11-29T14:39:59.169Z,32.35
2022-11-29T14:42:28.004Z,33.63
2022-11-29T14:45:11.153Z,30.88
2022-11-29T14:47:47.906Z,29.48
2022-11-29T14:50:39.222Z,29.52
2022-11-29T14:53:26.944Z,24.27
2022-11-29T14:56:35.181Z,26.67
2022-11-29T14:59:39.625Z,23.83
2022-11-29T15:02:46.281Z,24.33
2022-11-29T15:05:28.287Z,19.80
2022-11-29T15:08:28.099Z,24.35
2022-11-29T15:11:20.280Z,30.25
2022-11-29T15:14:02.542Z,34.78
2022-11-29T15:16:52.455Z,38.15
2022-11-29T15:19:45.036Z,34.30
2022-11-29T15:22:34.180Z,28.60
2022-11-29T15:25:05.163Z,25.90
2022-11-29T15:27:40.407Z,36.42
2022-11-29T15:30:47.198Z,29.67
2022-11-29T15:33:32.325Z,26.52
2022-11-29T15:36:12.587Z,28.58
2022-11-29T15:39:12.310Z,31.73
2022-11-29T15:41:41.710Z,32.67
2022-11-29T15:44:29.249Z,31.52
2022-11-29T15:47:02.275Z,34.40
2022-11-29T15:49:30.551Z,33.53
2022-11-29T15:52:20.236Z,31.05
2022-11-29T15:54:52.001Z,29.45
2022-11-29T15:57:46.281Z,35.58
2022-11-29T16:00:23.063Z,32.15
2022-11-29T16:03:11.307Z,30.23
2022-11-29T16:05:46.326Z,27.38
2022-11-29T16:08:21.020Z,29.55
2022-11-29T16:10:59.306Z,32.60
2022-11-29T16:13:40.329Z,30.17
2022-11-29T16:16:20.059Z,25.48
2022-11-29T16:18:55.413Z,25.95
2022-11-29T16:21:28.911Z,26.70
2022-11-29T16:24:03.296Z,27.70
2022-11-29T16:26:36.990Z,32.03
2022-11-29T16:29:11.322Z,25.35
2022-11-29T16:31:38.542Z,21.50
2022-11-29T16:34:21.295Z,21.08
2022-11-29T16:37:01.029Z,26.35
2022-11-29T16:39:35.359Z,64.18
2022-11-29T16:42:15.968Z,26.77
2022-11-29T16:44:51.330Z,28.65
2022-11-29T16:47:20.632Z,21.50
2022-11-29T16:50:18.373Z,20.13
2022-11-29T16:52:46.132Z,16.63
2022-11-29T16:55:19.407Z,14.93
2022-11-29T16:57:47.677Z,25.40
2022-11-29T17:00:24.541Z,13.30
2022-11-29T17:02:51.948Z,16.13
2022-11-29T17:05:25.442Z,14.52
2022-11-29T17:07:59.404Z,12.70
2022-11-29T17:10:33.572Z,15.45
2022-11-29T17:13:01.662Z,15.93
2022-11-29T17:15:28.490Z,14.45
2022-11-29T17:18:02.433Z,12.43
2022-11-29T17:20:29.210Z,13.10
2022-11-29T17:23:08.528Z,12.88
2022-11-29T17:25:35.341Z,16.17
2022-11-29T17:28:02.915Z,14.15
2022-11-29T17:30:36.652Z,12.85
2022-11-29T17:33:09.963Z,14.23
2022-11-29T17:35:43.457Z,14.05
2022-11-29T17:38:16.565Z,13.40
2022-11-29T17:40:43.294Z,13.38
2022-11-29T17:43:10.011Z,12.57
2022-11-29T17:45:45.504Z,19.42
2022-11-29T17:48:18.409Z,13.73
2022-11-29T17:50:51.469Z,12.02
2022-11-29T17:53:24.611Z,13.10
2022-11-29T17:55:51.685Z,12.27
2022-11-29T17:58:18.550Z,11.45
2022-11-29T18:00:51.447Z,12.18
2022-11-29T18:03:18.282Z,10.80
2022-11-29T18:05:51.515Z,12.82
2022-11-29T18:08:18.390Z,12.13
2022-11-29T18:10:45.135Z,16.50
2022-11-29T18:13:18.493Z,10.95
2022-11-29T18:15:51.488Z,13.07
2022-11-29T18:18:18.307Z,13.68
2022-11-29T18:20:51.468Z,11.90
2022-11-29T18:23:18.283Z,13.18
2022-11-29T18:26:05.542Z,14.07
2022-11-29T18:28:36.665Z,14.93
2022-11-29T18:31:18.616Z,15.48
2022-11-29T18:33:48.277Z,15.10
2022-11-29T18:36:27.521Z,13.75
2022-11-29T18:38:56.920Z,12.48
2022-11-29T18:41:31.581Z,11.98
2022-11-29T18:44:02.276Z,10.82
2022-11-29T18:46:39.517Z,12.27
2022-11-29T18:49:08.489Z,15.88
2022-11-29T18:51:36.941Z,14.73
2022-11-29T18:54:11.600Z,17.48
2022-11-29T18:56:38.942Z,13.38
2022-11-29T18:59:16.597Z,15.13
2022-11-29T19:01:51.609Z,11.75
2022-11-29T19:04:20.733Z,13.55
2022-11-29T19:06:54.570Z,14.02
2022-11-29T19:09:22.263Z,17.00
2022-11-29T19:11:56.597Z,16.17
2022-11-29T19:14:23.671Z,16.85
2022-11-29T19:16:57.618Z,14.07
2022-11-29T19:19:24.553Z,14.48
2022-11-29T19:21:59.689Z,14.80
2022-11-29T19:24:26.501Z,14.27
2022-11-29T19:26:55.807Z,21.45
2022-11-29T19:29:29.646Z,22.15
2022-11-29T19:32:03.746Z,19.30
2022-11-29T19:34:30.791Z,19.40
2022-11-29T19:36:57.601Z,16.35
2022-11-29T19:39:30.622Z,16.98
2022-11-29T19:41:59.486Z,15.23
2022-11-29T19:44:48.239Z,13.90
2022-11-29T19:47:19.597Z,13.27
2022-11-29T19:49:53.139Z,12.55
2022-11-29T19:52:21.379Z,13.27
2022-11-29T19:54:48.173Z,11.32
2022-11-29T19:57:21.636Z,11.50
2022-11-29T19:59:48.530Z,11.68
2022-11-29T20:02:22.720Z,10.38
2022-11-29T20:04:56.702Z,10.98
2022-11-29T20:07:30.251Z,11.13
2022-11-29T20:10:03.813Z,11.32
2022-11-29T20:12:32.857Z,9.15
2022-11-29T20:15:01.034Z,12.82
2022-11-29T20:17:34.802Z,11.85
2022-11-29T20:20:01.760Z,14.82
2022-11-29T20:22:33.808Z,12.45
2022-11-29T20:25:07.694Z,12.90
2022-11-29T20:27:45.715Z,11.50
2022-11-29T20:30:13.351Z,10.60
2022-11-29T20:32:46.829Z,13.02
2022-11-29T20:35:13.968Z,12.75
2022-11-29T20:38:26.786Z,12.57
2022-11-29T20:41:04.978Z,12.20
2022-11-29T20:43:58.846Z,10.85
2022-11-29T20:46:26.451Z,10.30
2022-11-29T20:48:53.988Z,11.80
2022-11-29T20:51:37.859Z,10.40
2022-11-29T20:54:04.933Z,11.25
2022-11-29T20:56:44.737Z,11.23
2022-11-29T20:59:11.611Z,13.98
2022-11-29T21:01:38.469Z,15.48
2022-11-29T21:04:14.557Z,16.60
2022-11-29T21:06:43.722Z,15.30
2022-11-29T21:09:10.874Z,14.63
2022-11-29T21:11:44.878Z,14.48
2022-11-29T21:14:12.052Z,12.75
2022-11-29T21:16:39.077Z,13.27
2022-11-29T21:19:12.908Z,11.25
2022-11-29T21:21:52.141Z,13.60
2022-11-29T21:24:52.951Z,18.10
2022-11-29T21:27:34.350Z,20.40
2022-11-29T21:30:11.789Z,28.05
2022-11-29T21:32:38.962Z,23.02
2022-11-29T21:35:12.849Z,25.70
2022-11-29T21:37:40.993Z,19.25
2022-11-29T21:40:09.632Z,20.35
2022-11-29T21:42:43.772Z,20.05
2022-11-29T21:45:17.833Z,15.75
2022-11-29T21:48:35.807Z,15.43
2022-11-29T21:51:12.802Z,17.17
2022-11-29T21:53:40.566Z,16.10
2022-11-29T21:56:21.828Z,16.00
2022-11-29T21:58:48.723Z,16.42
2022-11-29T22:01:24.883Z,14.05
2022-11-29T22:03:53.891Z,16.30
2022-11-29T22:06:30.852Z,14.48
2022-11-29T22:08:57.707Z,17.58
2022-11-29T22:11:36.846Z,14.90
2022-11-29T22:14:15.234Z,15.52
2022-11-29T22:16:57.002Z,18.35
2022-11-29T22:19:29.305Z,22.58
2022-11-29T22:22:08.887Z,21.17
2022-11-29T22:24:36.873Z,17.20
2022-11-29T22:27:18.900Z,17.02
2022-11-29T22:29:45.830Z,15.35
2022-11-29T22:32:12.645Z,17.17
2022-11-29T22:34:46.275Z,14.75
2022-11-29T22:37:15.101Z,14.45
2022-11-29T22:39:41.880Z,15.82
2022-11-29T22:42:14.919Z,18.27
2022-11-29T22:44:48.327Z,17.77
2022-11-29T22:47:15.307Z,16.65
2022-11-29T22:49:44.423Z,12.88
2022-11-29T22:52:17.885Z,13.18
2022-11-29T22:54:50.917Z,13.00
2022-11-29T22:57:22.239Z,10.90
2022-11-29T22:59:55.919Z,10.45
2022-11-29T23:02:22.733Z,9.55
2022-11-29T23:04:58.025Z,9.65
2022-11-29T23:07:32.031Z,9.25
2022-11-29T23:10:05.943Z,9.23
2022-11-29T23:12:32.730Z,8.32
2022-11-29T23:15:08.980Z,9.32
2022-11-29T23:17:35.965Z,8.88
2022-11-29T23:20:02.734Z,10.02
2022-11-29T23:22:37.929Z,8.45
2022-11-29T23:25:06.302Z,7.03
2022-11-29T23:27:45.965Z,7.57
2022-11-29T23:30:19.974Z,7.50
2022-11-29T23:32:52.952Z,8.73
2022-11-29T23:35:26.985Z,7.38
2022-11-29T23:38:05.973Z,10.23
2022-11-29T23:40:33.634Z,8.48
2022-11-29T23:43:07.127Z,8.35
2022-11-29T23:45:43.026Z,10.13
2022-11-29T23:48:09.917Z,8.93
2022-11-29T23:50:42.971Z,7.82
2022-11-29T23:53:12.946Z,9.85
2022-11-29T23:55:46.057Z,9.05
2022-11-29T23:58:13.030Z,9.32
